Time;durP1;ratioP1;P1;durP2;ratioP2;P2;SDS_P1;SDS_P2;PMS_P1;PMS_P2;Temp;Humidity;BMP_temperature;BMP_pressure;BME280_temperature;BME280_humidity;BME280_pressure;Samples;Min_cycle;Max_cycle;Signal;HPM_P1;HPM_P2
2022/05/30 00:00:21;;;;;;;3.83;2.60;;;;;;;9.14;100.00;100289.84;4985884;28;20034;-79
2022/05/30 00:02:48;;;;;;;4.40;2.90;;;;;;;9.13;100.00;100280.22;5013075;23;20064;-79
2022/05/30 00:05:17;;;;;;;3.53;2.63;;;;;;;9.08;100.00;100284.69;5024178;28;20033;-80
2022/05/30 00:07:43;;;;;;;3.55;2.63;;;;;;;9.06;100.00;100278.59;5016788;28;20087;-79
2022/05/30 00:10:10;;;;;;;3.22;2.40;;;;;;;9.04;100.00;100283.91;5014508;28;20473;-80
2022/05/30 00:12:38;;;;;;;5.22;2.50;;;;;;;9.02;100.00;100276.03;4996464;28;20033;-79
2022/05/30 00:15:08;;;;;;;2.97;2.58;;;;;;;9.00;100.00;100279.63;5023818;28;20041;-79
2022/05/30 00:17:35;;;;;;;3.45;2.38;;;;;;;8.98;100.00;100282.25;5035665;28;20041;-80
2022/05/30 00:20:02;;;;;;;4.95;2.75;;;;;;;8.96;100.00;100286.69;5000821;28;20045;-79
2022/05/30 00:22:28;;;;;;;3.40;2.63;;;;;;;8.99;100.00;100278.72;5004272;28;20409;-80
2022/05/30 00:24:55;;;;;;;4.90;2.80;;;;;;;8.93;100.00;100278.84;4998201;28;20037;-79
2022/05/30 00:27:22;;;;;;;2.90;2.60;;;;;;;8.85;100.00;100283.41;5001690;28;20046;-80
2022/05/30 00:29:49;;;;;;;3.47;2.67;;;;;;;8.80;100.00;100285.25;5024954;28;20060;-80
2022/05/30 00:32:15;;;;;;;3.88;3.03;;;;;;;8.76;100.00;100277.44;5034035;28;20397;-80
2022/05/30 00:34:42;;;;;;;3.47;2.65;;;;;;;8.72;100.00;100285.41;5034021;28;20099;-80
2022/05/30 00:37:09;;;;;;;2.75;2.42;;;;;;;8.70;100.00;100279.28;5018337;28;20052;-80
2022/05/30 00:39:35;;;;;;;3.13;2.45;;;;;;;8.67;100.00;100278.50;5001332;28;20048;-80
2022/05/30 00:42:17;;;;;;;3.40;2.55;;;;;;;8.68;100.00;100285.50;5031149;28;20044;-80
2022/05/30 00:44:46;;;;;;;5.45;2.55;;;;;;;8.63;100.00;100285.56;5007292;28;20406;-80
2022/05/30 00:47:13;;;;;;;10.43;2.65;;;;;;;8.65;100.00;100282.91;5016405;28;20053;-79
2022/05/30 00:49:41;;;;;;;4.85;2.83;;;;;;;8.64;100.00;100281.16;5000969;23;20056;-80
2022/05/30 00:52:14;;;;;;;4.57;2.70;;;;;;;8.58;100.00;100284.81;5000530;28;20050;-79
2022/05/30 00:55:05;;;;;;;4.35;2.72;;;;;;;8.53;100.00;100280.50;4974192;28;20043;-82
2022/05/30 00:57:33;;;;;;;3.05;2.42;;;;;;;8.52;100.00;100281.41;4978164;28;20057;-80
2022/05/30 01:00:05;;;;;;;3.72;2.50;;;;;;;8.48;100.00;100279.72;4994671;28;20050;-82
2022/05/30 01:02:33;;;;;;;3.78;2.45;;;;;;;8.48;100.00;100277.06;4987098;28;20052;-82
2022/05/30 01:07:54;;;;;;;3.70;2.70;;;;;;;8.42;100.00;100281.56;4969094;28;20581;-80
2022/05/30 01:10:21;;;;;;;4.25;2.70;;;;;;;8.41;100.00;100274.56;4980963;28;20077;-79
2022/05/30 01:12:52;;;;;;;3.40;2.75;;;;;;;8.38;100.00;100277.25;4997254;28;20157;-81
2022/05/30 01:15:26;;;;;;;4.13;2.40;;;;;;;8.36;100.00;100275.53;4993921;28;20050;-81
2022/05/30 01:18:00;;;;;;;5.03;2.72;;;;;;;8.35;100.00;100279.06;4984439;28;20042;-79
2022/05/30 01:20:42;;;;;;;4.30;2.85;;;;;;;8.35;100.00;100276.44;4970562;28;20038;-79
2022/05/30 01:23:39;;;;;;;3.17;2.58;;;;;;;8.35;100.00;100274.69;4988410;28;20041;-79
2022/05/30 01:26:44;;;;;;;4.57;2.65;;;;;;;8.37;100.00;100272.88;4989332;28;20045;-79
2022/05/30 01:29:17;;;;;;;3.63;2.67;;;;;;;8.35;100.00;100277.31;4985402;28;20039;-79
2022/05/30 01:31:44;;;;;;;4.85;2.85;;;;;;;8.35;100.00;100289.59;4972617;28;20046;-80
2022/05/30 01:34:11;;;;;;;3.50;2.50;;;;;;;8.33;100.00;100281.69;4953473;28;20045;-80
2022/05/30 01:36:37;;;;;;;3.80;2.80;;;;;;;8.33;100.00;100286.97;4975211;28;20068;-79
2022/05/30 01:39:04;;;;;;;3.35;2.70;;;;;;;8.32;100.00;100279.94;4984761;28;20089;-79
2022/05/30 01:41:31;;;;;;;4.23;2.70;;;;;;;8.33;100.00;100279.06;4974055;28;20074;-78
2022/05/30 01:43:58;;;;;;;3.73;2.83;;;;;;;8.35;100.00;100285.19;4972903;28;20042;-79
2022/05/30 01:46:26;;;;;;;4.00;2.95;;;;;;;8.34;100.00;100280.81;4973783;28;20108;-80
2022/05/30 01:48:53;;;;;;;3.72;2.70;;;;;;;8.36;100.00;100289.56;4971997;28;20073;-79
2022/05/30 01:51:21;;;;;;;4.03;2.65;;;;;;;8.36;100.00;100291.34;4969914;28;20045;-79
2022/05/30 01:53:50;;;;;;;3.72;2.55;;;;;;;8.37;100.00;100283.41;4970084;28;20042;-79
2022/05/30 01:56:17;;;;;;;3.22;2.67;;;;;;;8.36;100.00;100284.31;4986199;28;20050;-80
2022/05/30 01:58:44;;;;;;;3.78;2.65;;;;;;;8.40;100.00;100285.09;4978712;28;20052;-79
2022/05/30 02:01:16;;;;;;;4.07;2.50;;;;;;;8.39;100.00;100283.38;4971399;28;20754;-81
2022/05/30 02:03:47;;;;;;;3.58;2.83;;;;;;;8.39;100.00;100283.38;4967585;28;20042;-79
2022/05/30 02:06:14;;;;;;;3.47;2.80;;;;;;;8.39;100.00;100288.63;5003666;28;20062;-80
2022/05/30 02:08:41;;;;;;;3.55;2.78;;;;;;;8.38;100.00;100289.53;4958108;28;20046;-80
2022/05/30 02:11:10;;;;;;;4.20;2.40;;;;;;;8.41;100.00;100286.88;4957693;28;20042;-80
2022/05/30 02:13:37;;;;;;;3.20;2.65;;;;;;;8.38;100.00;100287.78;4976434;28;20046;-79
2022/05/30 02:18:51;;;;;;;3.25;2.63;;;;;;;8.37;100.00;100283.41;4989161;28;20504;-78
2022/05/30 02:21:18;;;;;;;4.00;2.70;;;;;;;8.36;100.00;100276.41;4982900;28;20046;-81
2022/05/30 02:23:45;;;;;;;3.92;2.60;;;;;;;8.41;100.00;100278.97;4956755;28;20053;-80
2022/05/30 02:26:12;;;;;;;4.25;2.40;;;;;;;8.36;100.00;100283.44;4974434;28;20066;-80
2022/05/30 02:28:38;;;;;;;4.68;2.85;;;;;;;8.37;100.00;100274.63;4986828;28;20054;-80
2022/05/30 02:31:05;;;;;;;4.28;2.83;;;;;;;8.39;100.00;100278.97;4988819;28;20384;-79
2022/05/30 02:39:03;;;;;;;3.70;2.65;;;;;;;8.37;100.00;100278.13;4989111;28;20042;-79
2022/05/30 02:41:30;;;;;;;2.90;2.30;;;;;;;8.33;100.00;100275.56;4975356;28;20046;-80
2022/05/30 02:43:57;;;;;;;3.30;2.60;;;;;;;8.41;100.00;100277.22;5005952;28;20426;-81
2022/05/30 02:46:24;;;;;;;4.03;2.67;;;;;;;8.36;100.00;100280.81;4955280;28;20038;-79
2022/05/30 02:48:51;;;;;;;3.97;2.85;;;;;;;8.30;100.00;100276.47;4976466;28;20078;-79
2022/05/30 02:51:18;;;;;;;4.43;2.80;;;;;;;8.30;100.00;100281.72;4976170;28;20048;-79
2022/05/30 02:53:44;;;;;;;4.10;2.67;;;;;;;8.34;100.00;100274.69;4981597;28;20061;-80
2022/05/30 02:56:13;;;;;;;6.25;2.80;;;;;;;8.37;100.00;100272.88;4961388;28;20038;-80
2022/05/30 02:58:41;;;;;;;4.45;2.60;;;;;;;8.36;100.00;100272.91;4973484;28;20042;-80
2022/05/30 03:01:08;;;;;;;3.22;2.63;;;;;;;8.34;100.00;100272.91;4958847;28;20125;-80
2022/05/30 03:03:34;;;;;;;3.70;2.70;;;;;;;8.33;100.00;100270.31;4959640;28;20122;-79
2022/05/30 03:06:02;;;;;;;3.23;2.53;;;;;;;8.31;100.00;100280.84;4955566;28;20129;-79
2022/05/30 03:08:29;;;;;;;5.70;2.80;;;;;;;8.35;100.00;100272.03;4979224;28;20049;-80
2022/05/30 03:10:55;;;;;;;4.95;3.13;;;;;;;8.36;100.00;100279.03;4965440;28;20538;-80
2022/05/30 03:13:22;;;;;;;3.50;2.80;;;;;;;8.37;100.00;100275.50;4977836;28;20042;-81
2022/05/30 03:15:49;;;;;;;3.05;2.53;;;;;;;8.36;100.00;100281.66;4980224;28;20039;-79
2022/05/30 03:18:16;;;;;;;5.22;3.30;;;;;;;8.40;100.00;100278.06;4982122;28;20679;-78
2022/05/30 03:20:42;;;;;;;4.45;2.97;;;;;;;8.41;100.00;100278.97;4990717;28;20528;-79
2022/05/30 03:23:09;;;;;;;4.20;3.05;;;;;;;8.43;100.00;100283.31;4974916;28;20042;-78
2022/05/30 03:25:36;;;;;;;3.22;2.30;;;;;;;8.45;100.00;100289.41;4987630;28;20670;-78
2022/05/30 03:28:03;;;;;;;2.65;2.20;;;;;;;8.48;100.00;100293.75;4994559;28;20042;-79
2022/05/30 03:30:30;;;;;;;3.10;2.35;;;;;;;8.49;100.00;100297.25;4991001;28;20043;-79
2022/05/30 03:32:56;;;;;;;3.42;2.55;;;;;;;8.52;100.00;100298.06;4988836;28;20065;-80
2022/05/30 03:35:23;;;;;;;5.35;2.72;;;;;;;8.56;100.00;100294.47;4979219;28;20065;-79
2022/05/30 03:37:50;;;;;;;2.90;2.60;;;;;;;8.62;100.00;100301.41;4976670;28;20419;-77
2022/05/30 03:40:17;;;;;;;3.55;2.50;;;;;;;8.67;100.00;100302.19;4974440;28;20042;-78
2022/05/30 03:42:44;;;;;;;3.85;2.60;;;;;;;8.70;100.00;100304.75;4992321;28;20081;-78
2022/05/30 03:45:13;;;;;;;4.30;3.08;;;;;;;8.73;100.00;100302.94;4989991;28;20169;-79
2022/05/30 03:47:45;;;;;;;4.05;2.92;;;;;;;8.83;100.00;100308.03;4976678;28;20518;-78
2022/05/30 03:50:24;;;;;;;4.30;3.10;;;;;;;8.89;100.00;100308.78;4964264;28;20061;-78
2022/05/30 03:52:56;;;;;;;5.60;3.28;;;;;;;8.94;100.00;100306.06;4963337;28;20160;-77
2022/05/30 03:55:23;;;;;;;4.38;2.50;;;;;;;8.99;100.00;100312.09;4991212;28;20612;-78
2022/05/30 03:57:51;;;;;;;6.18;3.42;;;;;;;9.11;100.00;100314.50;4960139;28;20038;-80
2022/05/30 04:00:20;;;;;;;2.97;2.65;;;;;;;9.15;100.00;100316.16;4955933;28;20049;-80
2022/05/30 04:02:49;;;;;;;5.13;3.35;;;;;;;9.32;100.00;100313.19;4991057;28;20050;-79
2022/05/30 04:05:17;;;;;;;5.60;3.65;;;;;;;9.36;100.00;100314.88;5007026;28;20043;-79
2022/05/30 04:07:44;;;;;;;4.55;3.10;;;;;;;9.42;100.00;100309.47;4979936;28;20076;-79
2022/05/30 04:10:11;;;;;;;6.32;3.33;;;;;;;9.58;100.00;100315.25;4974874;28;20133;-78
2022/05/30 04:12:38;;;;;;;6.30;4.07;;;;;;;9.64;100.00;100314.28;4992864;28;20038;-79
2022/05/30 04:15:08;;;;;;;6.25;4.10;;;;;;;9.71;100.00;100319.38;4975477;28;20427;-79
2022/05/30 04:17:36;;;;;;;5.63;3.75;;;;;;;9.75;100.00;100325.44;4959145;28;20088;-79
2022/05/30 04:20:04;;;;;;;6.70;3.78;;;;;;;9.93;100.00;100322.41;4972029;28;20047;-79
2022/05/30 04:22:31;;;;;;;6.82;4.57;;;;;;;9.99;100.00;100316.09;4973823;28;20049;-80
2022/05/30 04:24:58;;;;;;;6.03;5.00;;;;;;;10.01;100.00;100317.81;4989547;28;20036;-79
2022/05/30 04:27:25;;;;;;;6.43;4.00;;;;;;;10.01;100.00;100317.81;4973454;28;20038;-79
2022/05/30 04:29:51;;;;;;;7.90;4.68;;;;;;;10.14;100.00;100318.38;4974173;28;20427;-80
2022/05/30 04:32:18;;;;;;;6.85;4.50;;;;;;;10.11;100.00;100319.34;4991123;28;20041;-79
2022/05/30 04:34:45;;;;;;;6.53;4.47;;;;;;;10.13;100.00;100322.78;4968329;28;20389;-79
2022/05/30 04:37:12;;;;;;;8.35;4.55;;;;;;;10.22;100.00;100315.56;4974063;28;20049;-79
2022/05/30 04:39:38;;;;;;;6.60;4.60;;;;;;;10.26;100.00;100325.19;4993705;28;20053;-79
2022/05/30 04:42:05;;;;;;;5.53;4.65;;;;;;;10.27;100.00;100325.16;4986608;28;20518;-79
2022/05/30 04:44:32;;;;;;;6.53;4.50;;;;;;;10.31;100.00;100320.63;4949350;28;20038;-79
2022/05/30 04:46:59;;;;;;;7.03;4.22;;;;;;;10.35;100.00;100317.91;4957626;28;20121;-79
2022/05/30 04:49:26;;;;;;;8.27;4.65;;;;;;;10.27;100.00;100324.28;4989758;28;20054;-80
2022/05/30 04:51:53;;;;;;;7.28;4.07;;;;;;;10.27;100.00;100329.56;4939565;28;20577;-79
2022/05/30 04:54:20;;;;;;;5.65;4.25;;;;;;;10.21;100.00;100333.16;4988166;28;20046;-79
2022/05/30 04:56:47;;;;;;;5.82;4.07;;;;;;;10.30;100.00;100321.56;4957884;28;20046;-78
2022/05/30 04:59:14;;;;;;;9.25;4.47;;;;;;;10.32;100.00;100325.88;4970931;28;20447;-78
2022/05/30 05:01:41;;;;;;;7.15;4.70;;;;;;;10.37;100.00;100317.84;4984668;28;20097;-81
2022/05/30 05:04:08;;;;;;;7.28;4.05;;;;;;;10.41;100.00;100314.22;4981221;28;20034;-79
2022/05/30 05:06:35;;;;;;;5.95;3.78;;;;;;;10.47;100.00;100319.34;4981405;28;20511;-78
2022/05/30 05:09:24;;;;;;;5.93;4.90;;;;;;;10.55;100.00;100316.53;4966784;28;20121;-81
2022/05/30 05:11:51;;;;;;;7.00;3.83;;;;;;;10.62;100.00;100313.69;4979941;28;20058;-81
2022/05/30 05:14:20;;;;;;;7.75;4.00;;;;;;;10.82;100.00;100326.34;4989848;28;20043;-79
2022/05/30 05:16:46;;;;;;;8.98;4.07;;;;;;;11.02;100.00;100323.19;4987914;28;20054;-79
2022/05/30 05:19:13;;;;;;;4.53;3.50;;;;;;;11.04;100.00;100320.50;4966943;28;20038;-79
2022/05/30 05:21:43;;;;;;;7.93;3.58;;;;;;;11.25;100.00;100327.81;4976845;28;20042;-80
2022/05/30 05:24:10;;;;;;;5.85;4.22;;;;;;;11.37;100.00;100324.81;4995414;28;20031;-80
2022/05/30 05:26:43;;;;;;;6.95;3.67;;;;;;;11.46;100.00;100319.25;4938100;28;20038;-79
2022/05/30 05:29:10;;;;;;;9.32;3.50;;;;;;;11.59;100.00;100324.19;4986466;28;20057;-79
2022/05/30 05:31:36;;;;;;;8.77;4.82;;;;;;;11.67;100.00;100328.31;4979691;28;20053;-78
2022/05/30 05:34:05;;;;;;;6.10;3.70;;;;;;;11.78;100.00;100320.09;4974013;28;20054;-79
2022/05/30 05:36:36;;;;;;;5.97;3.28;;;;;;;11.86;100.00;100323.41;4967988;28;20038;-79
2022/05/30 05:39:03;;;;;;;5.70;3.88;;;;;;;11.90;100.00;100330.31;4941953;28;20149;-80
2022/05/30 05:41:30;;;;;;;8.35;3.88;;;;;;;11.89;100.00;100325.06;4963198;28;20038;-78
2022/05/30 05:43:58;;;;;;;5.90;3.40;;;;;;;11.91;100.00;100334.69;4955538;28;20387;-79
2022/05/30 05:46:30;;;;;;;7.07;4.05;;;;;;;11.75;100.00;100336.03;4959424;28;20034;-79
2022/05/30 05:48:57;;;;;;;4.95;3.97;;;;;;;11.83;100.00;100337.56;4987429;28;20129;-81
2022/05/30 05:51:25;;;;;;;8.68;4.13;;;;;;;11.69;100.00;100341.53;4998986;28;20058;-83
2022/05/30 05:53:53;;;;;;;7.15;3.65;;;;;;;11.70;100.00;100335.31;4965574;28;20352;-82
2022/05/30 05:56:30;;;;;;;10.60;3.85;;;;;;;11.82;100.00;100327.91;4977230;28;20043;-81
2022/05/30 05:58:57;;;;;;;7.95;4.20;;;;;;;12.05;99.69;100328.97;4982802;28;20120;-80
2022/05/30 06:01:30;;;;;;;6.90;4.05;;;;;;;12.21;99.31;100332.84;4948799;28;20046;-81
2022/05/30 06:03:59;;;;;;;6.32;3.55;;;;;;;12.36;97.41;100335.00;4989520;28;20054;-80
2022/05/30 06:06:26;;;;;;;8.68;3.97;;;;;;;12.52;96.73;100327.41;4966787;28;20038;-82
2022/05/30 06:08:56;;;;;;;7.47;3.90;;;;;;;12.55;96.74;100329.97;4996345;28;20069;-79
2022/05/30 06:11:24;;;;;;;7.70;4.18;;;;;;;12.51;96.65;100332.75;4999044;28;20050;-81
2022/05/30 06:13:51;;;;;;;7.30;3.53;;;;;;;12.50;97.15;100325.72;4996601;28;20058;-83
2022/05/30 06:16:24;;;;;;;9.00;4.18;;;;;;;12.54;97.10;100332.66;4948949;28;20137;-81
2022/05/30 06:18:53;;;;;;;5.20;3.65;;;;;;;12.60;98.29;100337.75;4979791;28;20072;-82
2022/05/30 06:21:21;;;;;;;8.15;3.90;;;;;;;12.77;93.06;100335.38;4979783;28;20090;-80
2022/05/30 06:23:48;;;;;;;8.65;3.83;;;;;;;12.82;92.40;100332.56;4992933;28;20414;-80
2022/05/30 06:26:15;;;;;;;7.80;3.90;;;;;;;12.93;93.07;100341.00;4979540;28;20518;-80
2022/05/30 06:28:43;;;;;;;5.93;3.97;;;;;;;12.98;91.62;100340.88;4989057;28;20482;-80
2022/05/30 06:31:12;;;;;;;7.15;4.28;;;;;;;13.14;88.96;100334.97;4975164;28;20414;-79
2022/05/30 06:33:40;;;;;;;7.47;3.63;;;;;;;13.35;89.17;100333.31;4959046;28;21032;-80
2022/05/30 06:36:09;;;;;;;7.97;3.40;;;;;;;13.46;85.45;100338.25;5000381;28;20050;-79
2022/05/30 06:38:36;;;;;;;8.27;4.00;;;;;;;13.44;84.84;100342.72;4998613;28;20045;-81
2022/05/30 06:41:10;;;;;;;11.07;3.88;;;;;;;13.30;85.46;100347.69;4980277;28;20057;-80
2022/05/30 06:43:36;;;;;;;8.90;3.50;;;;;;;13.02;86.73;100340.69;4994222;28;20049;-79
2022/05/30 06:46:03;;;;;;;7.72;4.05;;;;;;;12.96;88.36;100352.41;4962344;28;20681;-80
2022/05/30 06:48:30;;;;;;;8.80;3.95;;;;;;;13.00;86.62;100350.47;4998039;28;20189;-79
2022/05/30 06:50:57;;;;;;;9.77;4.10;;;;;;;13.58;84.16;100352.84;4972876;28;20419;-80
2022/05/30 06:53:24;;;;;;;10.57;4.30;;;;;;;13.96;81.05;100346.94;4964178;28;20042;-81
2022/05/30 06:55:51;;;;;;;6.22;3.17;;;;;;;14.37;78.49;100353.22;4981127;28;20047;-80
2022/05/30 06:58:18;;;;;;;6.03;3.58;;;;;;;14.48;78.52;100355.47;4997270;28;20046;-79
2022/05/30 07:00:46;;;;;;;6.50;3.10;;;;;;;14.46;76.15;100357.34;4986191;28;20034;-81
2022/05/30 07:03:17;;;;;;;7.13;3.83;;;;;;;14.51;76.02;100358.00;4957043;28;20496;-80
2022/05/30 07:05:45;;;;;;;5.30;3.25;;;;;;;14.71;74.13;100354.50;4977890;28;20061;-82
2022/05/30 07:08:12;;;;;;;7.18;3.72;;;;;;;14.69;74.75;100356.38;4999191;28;20038;-82
2022/05/30 07:10:39;;;;;;;6.65;3.42;;;;;;;14.79;73.88;100367.47;4978487;28;20050;-80
2022/05/30 07:13:06;;;;;;;8.55;2.95;;;;;;;14.71;73.28;100367.78;5071712;23;20049;-81
2022/05/30 07:15:36;;;;;;;5.90;3.00;;;;;;;14.40;73.42;100370.84;4963481;28;20126;-82
2022/05/30 07:18:11;;;;;;;8.80;3.85;;;;;;;14.29;73.93;100373.06;4968209;28;20042;-80
2022/05/30 07:20:39;;;;;;;6.32;3.50;;;;;;;14.32;73.95;100375.59;4953207;28;20053;-81
2022/05/30 07:23:06;;;;;;;7.45;3.75;;;;;;;14.51;71.65;100376.59;4988796;28;20038;-82
2022/05/30 07:25:37;;;;;;;6.97;2.70;;;;;;;14.53;71.18;100382.72;4954714;28;20039;-80
2022/05/30 07:28:05;;;;;;;4.18;3.22;;;;;;;14.23;71.99;100382.16;4938869;28;20488;-82
2022/05/30 07:30:37;;;;;;;3.97;3.08;;;;;;;14.24;75.17;100388.34;4956289;28;20069;-81
2022/05/30 07:33:04;;;;;;;4.05;3.08;;;;;;;14.22;69.33;100387.53;4958481;28;20042;-82
2022/05/30 07:35:31;;;;;;;8.80;3.53;;;;;;;14.25;71.54;100382.94;4958585;28;20039;-80
2022/05/30 07:37:58;;;;;;;5.32;3.50;;;;;;;14.21;72.30;100380.47;4973445;28;20049;-80
2022/05/30 07:40:25;;;;;;;56.60;10.50;;;;;;;14.16;71.82;100387.78;4964385;28;20070;-81
2022/05/30 07:42:57;;;;;;;4.55;2.78;;;;;;;14.09;72.36;100395.09;4959238;28;20059;-81
2022/05/30 07:45:26;;;;;;;5.78;3.10;;;;;;;14.20;73.72;100389.38;5015762;28;20039;-82
2022/05/30 07:47:53;;;;;;;7.15;3.25;;;;;;;14.07;73.53;100394.31;4977515;28;20046;-82
2022/05/30 07:50:20;;;;;;;6.43;3.05;;;;;;;14.08;73.58;100396.91;4977301;28;20046;-81
2022/05/30 07:52:47;;;;;;;7.00;3.10;;;;;;;14.02;73.62;100404.25;4959115;28;20070;-80
2022/05/30 07:55:14;;;;;;;7.47;3.50;;;;;;;14.04;74.18;100403.28;4957970;28;20606;-80
2022/05/30 07:57:53;;;;;;;4.00;2.95;;;;;;;14.40;78.25;100400.09;4971904;28;20046;-82
2022/05/30 08:00:22;;;;;;;5.97;3.15;;;;;;;14.65;70.77;100407.97;4959957;28;20046;-82
2022/05/30 08:02:50;;;;;;;5.32;3.25;;;;;;;14.91;67.05;100406.88;4953534;28;20497;-80
2022/05/30 08:05:18;;;;;;;6.28;3.00;;;;;;;14.62;68.51;100408.94;4992134;28;20030;-80
2022/05/30 08:07:45;;;;;;;4.78;2.92;;;;;;;14.44;69.38;100414.09;4990591;28;20451;-80
2022/05/30 08:10:14;;;;;;;6.10;3.38;;;;;;;14.56;70.36;100421.63;4982488;28;20047;-81
2022/05/30 08:12:40;;;;;;;6.43;3.53;;;;;;;14.39;67.69;100409.00;4980225;28;20037;-79
2022/05/30 08:15:09;;;;;;;4.95;3.13;;;;;;;14.37;67.58;100417.00;4978074;28;20042;-81
2022/05/30 08:17:35;;;;;;;4.85;2.50;;;;;;;14.56;67.03;100419.84;4974945;28;20053;-79
2022/05/30 08:20:05;;;;;;;5.18;2.97;;;;;;;14.58;67.42;100415.31;4940198;28;20046;-82
2022/05/30 08:22:36;;;;;;;4.97;3.15;;;;;;;14.54;67.44;100412.81;4975579;28;20050;-82
2022/05/30 08:25:09;;;;;;;6.20;2.78;;;;;;;14.23;69.17;100415.84;4941576;28;20492;-79
2022/05/30 08:27:36;;;;;;;3.17;2.50;;;;;;;13.96;70.08;100413.31;4959512;28;20053;-81
2022/05/30 08:30:04;;;;;;;5.03;2.83;;;;;;;14.39;72.64;100409.00;4957713;28;20053;-79
2022/05/30 08:32:36;;;;;;;3.75;2.60;;;;;;;15.20;69.06;100406.47;4958765;28;20046;-81
2022/05/30 08:35:04;;;;;;;3.72;3.20;;;;;;;16.06;65.04;100405.31;4957454;28;20046;-82
2022/05/30 08:37:33;;;;;;;7.00;2.70;;;;;;;16.52;63.03;100397.75;4959843;28;20042;-80
2022/05/30 08:42:48;;;;;;;5.35;2.50;;;;;;;16.83;59.69;100403.31;4962791;28;20046;-82
2022/05/30 08:45:18;;;;;;;5.45;2.33;;;;;;;16.48;59.05;100401.47;4974251;28;20034;-80
2022/05/30 08:47:51;;;;;;;5.25;2.58;;;;;;;16.14;59.49;100407.56;4973734;28;20042;-80
2022/05/30 08:50:26;;;;;;;19.15;4.95;;;;;;;15.85;59.66;100406.28;4972734;28;20129;-82
2022/05/30 08:53:26;;;;;;;4.05;2.40;;;;;;;16.15;58.04;100404.00;4959020;28;20137;-83
2022/05/30 08:56:12;;;;;;;5.20;2.00;;;;;;;16.54;58.51;100398.53;4973453;28;20049;-80
2022/05/30 08:59:18;;;;;;;42.80;6.95;;;;;;;16.99;56.88;100397.22;4974466;28;20057;-81
2022/05/30 09:01:50;;;;;;;5.15;2.22;;;;;;;17.96;56.12;100396.50;4974894;28;20121;-81
2022/05/30 09:04:30;;;;;;;7.45;2.30;;;;;;;17.48;52.34;100399.97;4956045;28;20070;-82
2022/05/30 09:07:04;;;;;;;3.22;1.83;;;;;;;16.98;53.01;100401.66;4959081;28;20042;-82
2022/05/30 09:10:05;;;;;;;7.20;2.38;;;;;;;17.45;53.02;100407.19;4957666;28;20046;-81
2022/05/30 09:12:37;;;;;;;4.25;1.95;;;;;;;17.66;51.11;100409.69;4932735;28;20137;-81
2022/05/30 09:15:19;;;;;;;3.33;2.25;;;;;;;18.27;49.76;100399.19;4954827;28;20047;-81
2022/05/30 09:17:58;;;;;;;3.58;1.90;;;;;;;18.42;51.22;100392.09;4954856;28;20098;-80
2022/05/30 09:20:25;;;;;;;4.22;1.77;;;;;;;18.98;49.31;100403.16;4937487;28;20042;-81
2022/05/30 09:22:52;;;;;;;4.07;1.70;;;;;;;18.75;49.79;100383.97;4950035;28;20054;-80
2022/05/30 09:28:11;;;;;;;3.28;1.48;;;;;;;18.84;47.73;100395.97;5003851;28;20050;-81
2022/05/30 09:30:44;;;;;;;4.53;1.58;;;;;;;18.77;49.65;100399.94;4943036;28;20046;-81
2022/05/30 09:33:36;;;;;;;4.88;1.70;;;;;;;19.33;47.52;100401.03;4923816;28;20053;-81
2022/05/30 09:36:21;;;;;;;2.85;1.17;;;;;;;18.32;47.62;100398.91;4934269;29;20043;-83
2022/05/30 09:39:04;;;;;;;4.03;1.98;;;;;;;18.09;50.00;100402.91;4939914;28;20056;-81
2022/05/30 09:41:48;;;;;;;3.75;2.92;;;;;;;17.56;49.84;100413.78;4942407;28;20054;-82
2022/05/30 09:44:15;;;;;;;2.72;2.28;;;;;;;16.95;53.15;100411.63;4968162;28;20126;-81
2022/05/30 09:46:48;;;;;;;1.88;1.52;;;;;;;16.63;54.23;100419.41;4973627;28;20045;-79
2022/05/30 09:49:18;;;;;;;2.22;1.35;;;;;;;16.42;55.61;100424.00;4986896;28;20393;-82
2022/05/30 09:51:50;;;;;;;3.65;1.80;;;;;;;16.40;56.37;100422.34;4938068;28;20050;-80
2022/05/30 09:54:26;;;;;;;36.33;5.82;;;;;;;16.50;55.87;100424.47;4937627;28;20109;-81
2022/05/30 09:56:59;;;;;;;5.97;1.88;;;;;;;16.30;56.52;100429.91;4960044;28;20050;-80
2022/05/30 09:59:39;;;;;;;2.55;1.60;;;;;;;15.96;57.86;100425.28;4943030;28;20046;-81
2022/05/30 10:02:26;;;;;;;2.42;1.38;;;;;;;15.86;59.05;100430.19;4930837;28;20035;-81
2022/05/30 10:05:04;;;;;;;3.65;1.60;;;;;;;15.83;59.87;100426.81;4943893;28;20059;-80
2022/05/30 10:07:35;;;;;;;4.40;1.60;;;;;;;16.49;59.36;100420.09;4969790;28;20412;-81
2022/05/30 10:10:19;;;;;;;12.18;2.72;;;;;;;16.89;55.74;100427.00;4938827;28;20054;-81
2022/05/30 10:13:17;;;;;;;11.23;8.98;;;;;;;16.49;56.84;100419.22;4989701;28;20049;-80
2022/05/30 10:15:58;;;;;;;4.15;2.30;;;;;;;16.50;58.11;100420.97;4955978;28;20050;-80
2022/05/30 10:18:29;;;;;;;1.20;1.10;;;;;;;16.32;55.83;100420.91;4961419;28;20042;-80
2022/05/30 10:21:12;;;;;;;4.55;2.97;;;;;;;16.26;57.46;100421.19;4986516;28;20376;-80
2022/05/30 10:30:44;;;;;;;2.60;1.10;;;;;;;18.01;50.46;100407.81;4975048;28;20038;-80
2022/05/30 10:33:48;;;;;;;1.20;1.10;;;;;;;17.73;49.06;100400.41;4977779;28;20512;-82
2022/05/30 10:36:47;;;;;;;1.10;0.65;;;;;;;17.47;50.28;100409.78;4996091;28;20038;-80
2022/05/30 10:39:53;;;;;;;1.73;0.70;;;;;;;18.12;51.58;100407.19;4983459;28;20069;-80
2022/05/30 10:42:59;;;;;;;10.93;1.50;;;;;;;18.30;48.11;100408.84;4992939;28;20038;-80
2022/05/30 10:45:47;;;;;;;1.63;0.80;;;;;;;17.76;49.64;100402.94;4980998;28;20046;-80
2022/05/30 10:48:28;;;;;;;1.13;0.90;;;;;;;17.13;51.70;100416.03;4960903;28;20053;-80
2022/05/30 10:51:22;;;;;;;2.00;1.27;;;;;;;16.47;54.89;100426.41;4973074;28;20129;-81
2022/05/30 10:53:58;;;;;;;2.63;1.98;;;;;;;16.20;56.43;100433.94;4975747;28;20519;-80
2022/05/30 10:56:33;;;;;;;4.85;1.35;;;;;;;16.05;56.72;100422.19;4972867;28;20031;-79
2022/05/30 10:59:11;;;;;;;1.98;0.90;;;;;;;16.02;57.97;100430.34;4963568;28;20438;-81
2022/05/30 11:01:47;;;;;;;1.35;1.25;;;;;;;16.00;57.97;100427.75;4977336;28;20053;-81
2022/05/30 11:05:12;;;;;;;1.20;1.05;;;;;;;16.16;57.27;100433.25;4956264;28;20597;-81
2022/05/30 11:07:47;;;;;;;1.20;1.10;;;;;;;16.46;57.80;100417.56;4915755;29;20044;-82
2022/05/30 11:10:41;;;;;;;1.23;0.80;;;;;;;17.56;54.56;100419.97;4896243;29;20095;-80
2022/05/30 11:13:41;;;;;;;1.50;1.00;;;;;;;18.10;49.75;100414.44;5023849;23;20077;-80
2022/05/30 13:27:48;;;;;;;52.35;7.43;;;;;;;17.75;49.91;100468.00;5038720;23;20119;-80
2022/05/30 13:30:26;;;;;;;3.50;1.30;;;;;;;17.38;51.18;100469.88;5004748;28;20046;-79
2022/05/30 13:32:53;;;;;;;2.53;1.48;;;;;;;17.24;51.89;100468.88;4988540;28;20078;-79
2022/05/30 13:35:20;;;;;;;2.78;1.20;;;;;;;17.14;52.31;100477.34;4986602;28;20073;-81
2022/05/30 13:37:49;;;;;;;1.88;1.30;;;;;;;17.55;51.89;100471.69;4968596;28;20042;-78
2022/05/30 13:40:21;;;;;;;1.33;0.90;;;;;;;17.83;50.76;100471.13;4972820;28;20529;-78
2022/05/30 13:43:00;;;;;;;1.88;1.00;;;;;;;18.04;49.64;100470.91;4974332;28;20057;-79
2022/05/30 13:45:47;;;;;;;2.70;1.42;;;;;;;17.92;49.65;100476.00;4975461;28;20094;-79
2022/05/30 13:48:17;;;;;;;3.63;1.40;;;;;;;17.85;50.01;100474.59;4975034;28;20073;-80
2022/05/30 13:50:55;;;;;;;12.73;1.85;;;;;;;17.01;50.58;100486.91;4958033;28;20069;-80
2022/05/30 13:53:25;;;;;;;9.75;1.98;;;;;;;17.38;51.69;100491.25;4974842;28;20038;-79
2022/05/30 13:55:59;;;;;;;2.00;1.05;;;;;;;17.50;50.03;100491.59;4970734;28;20101;-78
2022/05/30 13:58:28;;;;;;;5.35;2.15;;;;;;;17.47;49.83;100489.91;4993289;28;20052;-78
2022/05/30 14:00:59;;;;;;;3.05;1.92;;;;;;;17.14;50.14;100492.50;4987193;28;20046;-81
2022/05/30 14:03:26;;;;;;;7.22;2.28;;;;;;;17.01;49.23;100492.25;4960485;28;20042;-78
2022/05/30 14:05:53;;;;;;;3.03;1.75;;;;;;;17.06;49.50;100484.00;4991930;28;20039;-79
2022/05/30 14:08:23;;;;;;;0.93;0.90;;;;;;;16.95;49.56;100491.69;4973457;28;20129;-79
2022/05/30 14:10:49;;;;;;;2.47;0.95;;;;;;;16.99;50.81;100498.63;4983841;28;20050;-78
2022/05/30 14:13:44;;;;;;;1.17;1.00;;;;;;;16.91;49.57;100491.00;4994886;28;20113;-79
2022/05/30 14:16:35;;;;;;;1.98;0.82;;;;;;;16.84;50.73;100500.22;4994047;28;20047;-79
2022/05/30 14:19:09;;;;;;;3.38;1.30;;;;;;;16.76;50.91;100497.06;4974092;28;20511;-79